Hovedside
METAR-TAF:

METAR-TAF

Lufthavner :

Nadi, Fiji

breddegrad: 17-45S, lengdegrad: 177-27E, høyde over havet: 13 m

Gjeldene værobservasjon

Denne rapporten ble laget for 28 minutter siden, klokken 09:00 UTC
Vind 5 kt fra Sør-sørøst
Temperatur 24°C
Luftfuktighet 78%
Trykk 1016 hPa
Sikt 10 km eller mer
Få skyer i en høyde av 2800 ft
Brutte skyer i en høyde av 11000 ft

METAR: NFFN 190900Z 15005KT 9999 FEW028 BKN110 24/20 Q1016 NOSIG

Tid: 21:28 (09:28 UTC)

Varsel

Denne rapporten ble laget for 4 timer og 20 minutter siden, klokken 05:08 UTC
Varsel gyldig fra 19. klokken 06 UTC til 20. klokken 06 UTC
Vind 5 kt fra Sør-sørøst
Sikt 10 km eller mer
Spredte skyer i en høyde av 2800 ft
Brutte skyer i en høyde av 4800 ft
Blir
fra 19. klokken 22 UTC til 19. klokken 24 UTC
Vind 10 kt fra Vest
Blir
fra 20. klokken 04 UTC til 20. klokken 06 UTC
Vind 5 kt fra Sørøst

TAF: NFFN 190508Z 1906/2006 15005KT 9999 SCT028 BKN048 BECMG 1922/1924 26010KT BECMG 2004/2006 13005KT

Værobservasjoner og værvarsel for over 4000 flyplasser (METAR- og TAF-rapporter).

Tilgjengelige stasjoner er representert av de røde og gule prikkene på kartet.

Hold musepekeren over prikken for å se navnet på stasjonen.

Klikk så for å se værobservasjoner og -varsler.

For å forandre kartet kan du klikke på den grønne knappen med svart kryss for å zoome inn, på den grønne knappen med strek for å zoome ut, eller på de grønne pilene for å se tilstøtende kart.


METAR-TAF: